sensor_id;sensor_type;location;lat;lon;timestamp;pressure;altitude;pressure_sealevel;temperature;humidity
80147;BME280;69472;55.812;37.638;2023-05-10T00:03:40;100450.69;;;11.62;39.62
80147;BME280;69472;55.812;37.638;2023-05-10T00:08:41;100429.41;;;11.57;39.51
80147;BME280;69472;55.812;37.638;2023-05-10T00:13:42;100446.47;;;11.61;39.38
80147;BME280;69472;55.812;37.638;2023-05-10T00:18:42;100443.94;;;11.57;39.47
80147;BME280;69472;55.812;37.638;2023-05-10T00:23:43;100449.81;;;11.65;39.10
80147;BME280;69472;55.812;37.638;2023-05-10T00:28:44;100443.25;;;11.47;38.94
80147;BME280;69472;55.812;37.638;2023-05-10T00:33:45;100440.56;;;11.55;39.22
80147;BME280;69472;55.812;37.638;2023-05-10T00:38:45;100439.72;;;11.54;39.95
80147;BME280;69472;55.812;37.638;2023-05-10T00:43:46;100445.81;;;11.49;40.00
80147;BME280;69472;55.812;37.638;2023-05-10T00:48:47;100452.72;;;11.43;39.79
80147;BME280;69472;55.812;37.638;2023-05-10T00:53:49;100459.69;;;11.35;39.38
80147;BME280;69472;55.812;37.638;2023-05-10T00:58:51;100441.75;;;11.35;39.30
80147;BME280;69472;55.812;37.638;2023-05-10T01:03:52;100445.03;;;11.43;39.94
80147;BME280;69472;55.812;37.638;2023-05-10T01:08:53;100438.41;;;11.32;39.69
80147;BME280;69472;55.812;37.638;2023-05-10T01:13:56;100439.25;;;11.32;39.13
80147;BME280;69472;55.812;37.638;2023-05-10T01:18:57;100441.88;;;11.26;39.32
80147;BME280;69472;55.812;37.638;2023-05-10T01:24:38;100440.13;;;11.30;39.29
80147;BME280;69472;55.812;37.638;2023-05-10T01:36:09;100447.88;;;11.27;38.69
80147;BME280;69472;55.812;37.638;2023-05-10T01:46:07;100441.97;;;11.22;38.92
80147;BME280;69472;55.812;37.638;2023-05-10T01:51:17;100438.72;;;11.11;38.92
80147;BME280;69472;55.812;37.638;2023-05-10T01:56:24;100426.81;;;11.08;39.26
80147;BME280;69472;55.812;37.638;2023-05-10T02:01:27;100438.59;;;11.20;39.15
80147;BME280;69472;55.812;37.638;2023-05-10T02:06:28;100431.03;;;11.09;38.97
80147;BME280;69472;55.812;37.638;2023-05-10T02:11:31;100428.34;;;11.18;39.26
80147;BME280;69472;55.812;37.638;2023-05-10T02:16:32;100421.63;;;11.13;39.54
80147;BME280;69472;55.812;37.638;2023-05-10T02:21:35;100434.34;;;11.17;39.43
80147;BME280;69472;55.812;37.638;2023-05-10T02:26:37;100415.59;;;11.14;39.15
80147;BME280;69472;55.812;37.638;2023-05-10T02:31:38;100416.31;;;11.23;39.45
80147;BME280;69472;55.812;37.638;2023-05-10T02:36:40;100424.88;;;11.21;39.37
80147;BME280;69472;55.812;37.638;2023-05-10T02:41:42;100416.31;;;11.23;39.16
80147;BME280;69472;55.812;37.638;2023-05-10T02:46:44;100413.63;;;11.31;39.29
80147;BME280;69472;55.812;37.638;2023-05-10T02:51:51;100418.72;;;11.34;39.38
80147;BME280;69472;55.812;37.638;2023-05-10T02:56:56;100417.91;;;11.30;39.10
80147;BME280;69472;55.812;37.638;2023-05-10T03:01:59;100420.34;;;11.38;39.09
80147;BME280;69472;55.812;37.638;2023-05-10T03:07:02;100412.63;;;11.41;38.92
80147;BME280;69472;55.812;37.638;2023-05-10T03:12:18;100413.25;;;11.54;38.99
80147;BME280;69472;55.812;37.638;2023-05-10T03:17:43;100403.78;;;11.59;39.21
80147;BME280;69472;55.812;37.638;2023-05-10T03:22:53;100407.06;;;11.65;38.83
80147;BME280;69472;55.812;37.638;2023-05-10T03:27:56;100399.28;;;11.71;39.10
80147;BME280;69472;55.812;37.638;2023-05-10T03:32:57;100401.72;;;11.80;38.93
80147;BME280;69472;55.812;37.638;2023-05-10T03:37:58;100417.25;;;11.71;39.19
80147;BME280;69472;55.812;37.638;2023-05-10T03:42:59;100408.44;;;11.86;39.05
80147;BME280;69472;55.812;37.638;2023-05-10T03:48:00;100400.50;;;11.98;38.59
80147;BME280;69472;55.812;37.638;2023-05-10T03:53:00;100399.94;;;12.28;38.38
80147;BME280;69472;55.812;37.638;2023-05-10T03:58:02;100402.47;;;12.30;38.25
80147;BME280;69472;55.812;37.638;2023-05-10T04:03:03;100398.41;;;12.18;38.84
80147;BME280;69472;55.812;37.638;2023-05-10T04:08:04;100401.41;;;12.40;38.02
80147;BME280;69472;55.812;37.638;2023-05-10T04:13:05;100384.69;;;12.60;38.02
80147;BME280;69472;55.812;37.638;2023-05-10T04:18:06;100400.84;;;12.65;37.91
80147;BME280;69472;55.812;37.638;2023-05-10T04:23:07;100385.66;;;12.55;37.86
80147;BME280;69472;55.812;37.638;2023-05-10T04:28:08;100391.63;;;12.94;38.06
80147;BME280;69472;55.812;37.638;2023-05-10T04:33:09;100386.75;;;13.21;36.77
80147;BME280;69472;55.812;37.638;2023-05-10T04:38:09;100382.34;;;13.26;36.99
80147;BME280;69472;55.812;37.638;2023-05-10T04:43:10;100385.28;;;13.79;36.57
80147;BME280;69472;55.812;37.638;2023-05-10T04:48:11;100378.63;;;14.02;35.94
80147;BME280;69472;55.812;37.638;2023-05-10T04:53:11;100369.97;;;14.05;35.63
80147;BME280;69472;55.812;37.638;2023-05-10T04:58:13;100369.53;;;14.51;35.54
80147;BME280;69472;55.812;37.638;2023-05-10T05:03:14;100369.38;;;14.83;34.94
80147;BME280;69472;55.812;37.638;2023-05-10T05:08:15;100372.25;;;15.28;34.36
80147;BME280;69472;55.812;37.638;2023-05-10T05:13:16;100368.75;;;15.29;34.52
80147;BME280;69472;55.812;37.638;2023-05-10T05:18:16;100363.66;;;15.78;34.11
80147;BME280;69472;55.812;37.638;2023-05-10T05:23:18;100351.28;;;16.11;33.35
80147;BME280;69472;55.812;37.638;2023-05-10T05:28:21;100350.75;;;16.25;32.72
80147;BME280;69472;55.812;37.638;2023-05-10T05:33:22;100342.50;;;16.61;32.61
80147;BME280;69472;55.812;37.638;2023-05-10T05:38:22;100338.13;;;16.85;32.15
80147;BME280;69472;55.812;37.638;2023-05-10T05:43:24;100335.31;;;16.91;31.75
80147;BME280;69472;55.812;37.638;2023-05-10T05:48:25;100339.31;;;16.98;31.76
80147;BME280;69472;55.812;37.638;2023-05-10T05:53:25;100338.31;;;17.22;31.27
80147;BME280;69472;55.812;37.638;2023-05-10T05:58:26;100330.78;;;16.96;31.03
80147;BME280;69472;55.812;37.638;2023-05-10T06:03:27;100341.44;;;17.09;31.14
80147;BME280;69472;55.812;37.638;2023-05-10T06:08:28;100335.63;;;17.04;31.07
80147;BME280;69472;55.812;37.638;2023-05-10T06:13:28;100331.06;;;17.30;30.98
80147;BME280;69472;55.812;37.638;2023-05-10T06:18:32;100333.50;;;17.55;30.88
80147;BME280;69472;55.812;37.638;2023-05-10T06:23:33;100332.78;;;17.72;30.53
80147;BME280;69472;55.812;37.638;2023-05-10T06:28:33;100322.19;;;17.58;30.49
80147;BME280;69472;55.812;37.638;2023-05-10T06:33:34;100321.03;;;17.83;30.39
80147;BME280;69472;55.812;37.638;2023-05-10T06:38:35;100314.13;;;18.40;29.95
80147;BME280;69472;55.812;37.638;2023-05-10T06:43:36;100316.78;;;18.38;29.87
80147;BME280;69472;55.812;37.638;2023-05-10T06:48:40;100314.00;;;18.61;29.61
80147;BME280;69472;55.812;37.638;2023-05-10T06:53:40;100311.63;;;19.10;28.97
80147;BME280;69472;55.812;37.638;2023-05-10T06:58:41;100308.44;;;19.05;28.70
80147;BME280;69472;55.812;37.638;2023-05-10T07:03:42;100313.69;;;19.20;28.80
80147;BME280;69472;55.812;37.638;2023-05-10T07:08:43;100295.84;;;19.14;29.17
80147;BME280;69472;55.812;37.638;2023-05-10T07:13:44;100314.22;;;18.93;28.55
80147;BME280;69472;55.812;37.638;2023-05-10T07:18:46;100302.53;;;19.70;28.38
80147;BME280;69472;55.812;37.638;2023-05-10T07:23:47;100300.09;;;20.31;27.34
80147;BME280;69472;55.812;37.638;2023-05-10T07:28:48;100296.97;;;21.88;26.06
80147;BME280;69472;55.812;37.638;2023-05-10T07:33:48;100289.88;;;23.63;24.72
80147;BME280;69472;55.812;37.638;2023-05-10T07:38:49;100287.41;;;24.94;24.22
80147;BME280;69472;55.812;37.638;2023-05-10T07:43:49;100283.91;;;26.93;22.48
80147;BME280;69472;55.812;37.638;2023-05-10T07:48:50;100258.75;;;28.80;20.58
80147;BME280;69472;55.812;37.638;2023-05-10T07:53:51;100275.66;;;28.97;19.92
80147;BME280;69472;55.812;37.638;2023-05-10T07:58:51;100276.75;;;30.51;18.62
80147;BME280;69472;55.812;37.638;2023-05-10T08:03:52;100271.53;;;31.63;18.49
80147;BME280;69472;55.812;37.638;2023-05-10T08:08:53;100263.69;;;31.88;17.92
80147;BME280;69472;55.812;37.638;2023-05-10T08:13:55;100266.59;;;34.18;16.77
80147;BME280;69472;55.812;37.638;2023-05-10T08:18:56;100260.84;;;42.14;13.68
80147;BME280;69472;55.812;37.638;2023-05-10T08:23:56;100250.03;;;43.43;12.58
80147;BME280;69472;55.812;37.638;2023-05-10T08:28:58;100241.66;;;33.42;15.75
80147;BME280;69472;55.812;37.638;2023-05-10T08:33:58;100239.47;;;24.23;20.34
80147;BME280;69472;55.812;37.638;2023-05-10T08:39:00;100251.34;;;20.95;22.28
80147;BME280;69472;55.812;37.638;2023-05-10T08:44:04;100246.25;;;19.86;23.61
80147;BME280;69472;55.812;37.638;2023-05-10T08:49:06;100242.16;;;20.29;23.33
80147;BME280;69472;55.812;37.638;2023-05-10T08:54:08;100216.34;;;20.26;23.03
80147;BME280;69472;55.812;37.638;2023-05-10T08:59:09;100236.75;;;19.36;24.53
80147;BME280;69472;55.812;37.638;2023-05-10T09:04:10;100234.59;;;18.23;25.52
80147;BME280;69472;55.812;37.638;2023-05-10T09:09:10;100212.72;;;18.99;25.00
80147;BME280;69472;55.812;37.638;2023-05-10T09:14:12;100226.88;;;18.40;25.54
80147;BME280;69472;55.812;37.638;2023-05-10T09:19:13;100211.53;;;20.02;23.88
80147;BME280;69472;55.812;37.638;2023-05-10T09:24:14;100213.44;;;19.68;24.26
80147;BME280;69472;55.812;37.638;2023-05-10T09:29:14;100204.66;;;19.55;24.66
80147;BME280;69472;55.812;37.638;2023-05-10T09:34:20;100196.88;;;20.01;24.94
80147;BME280;69472;55.812;37.638;2023-05-10T09:39:36;100198.47;;;20.35;24.59
80147;BME280;69472;55.812;37.638;2023-05-10T09:44:37;100169.94;;;19.56;25.47
80147;BME280;69472;55.812;37.638;2023-05-10T09:49:38;100166.97;;;19.79;25.15
80147;BME280;69472;55.812;37.638;2023-05-10T09:54:45;100149.50;;;20.28;24.89
80147;BME280;69472;55.812;37.638;2023-05-10T09:59:52;100169.53;;;19.63;25.43
80147;BME280;69472;55.812;37.638;2023-05-10T10:04:55;100165.44;;;20.06;24.71
80147;BME280;69472;55.812;37.638;2023-05-10T10:09:55;100138.13;;;19.83;24.62
80147;BME280;69472;55.812;37.638;2023-05-10T10:14:56;100136.72;;;19.62;25.20
80147;BME280;69472;55.812;37.638;2023-05-10T10:19:59;100152.84;;;18.86;25.53
80147;BME280;69472;55.812;37.638;2023-05-10T10:25:00;100148.97;;;18.95;25.32
80147;BME280;69472;55.812;37.638;2023-05-10T10:35:22;100143.91;;;19.09;25.64
80147;BME280;69472;55.812;37.638;2023-05-10T10:45:27;100147.03;;;18.30;26.42
80147;BME280;69472;55.812;37.638;2023-05-10T10:50:28;100148.84;;;18.81;26.11
80147;BME280;69472;55.812;37.638;2023-05-10T10:55:29;100142.44;;;18.18;26.52
80147;BME280;69472;55.812;37.638;2023-05-10T11:00:37;100114.44;;;18.60;26.65
80147;BME280;69472;55.812;37.638;2023-05-10T11:05:42;100134.13;;;18.47;26.64
80147;BME280;69472;55.812;37.638;2023-05-10T11:11:09;100121.59;;;18.72;26.74
80147;BME280;69472;55.812;37.638;2023-05-10T11:16:25;100133.25;;;18.29;26.71
80147;BME280;69472;55.812;37.638;2023-05-10T11:21:27;100123.34;;;18.71;26.26
80147;BME280;69472;55.812;37.638;2023-05-10T11:26:35;100122.66;;;17.43;27.73
80147;BME280;69472;55.812;37.638;2023-05-10T11:31:42;100103.88;;;18.47;27.05
80147;BME280;69472;55.812;37.638;2023-05-10T11:36:51;100098.97;;;18.76;26.62
80147;BME280;69472;55.812;37.638;2023-05-10T11:41:52;100111.47;;;17.97;27.43
80147;BME280;69472;55.812;37.638;2023-05-10T11:46:52;100100.41;;;17.77;27.76
80147;BME280;69472;55.812;37.638;2023-05-10T11:51:53;100100.91;;;17.66;27.95
80147;BME280;69472;55.812;37.638;2023-05-10T11:57:03;100102.00;;;17.42;28.15
80147;BME280;69472;55.812;37.638;2023-05-10T12:02:04;100098.53;;;17.24;28.54
80147;BME280;69472;55.812;37.638;2023-05-10T12:07:05;100076.38;;;17.56;28.26
80147;BME280;69472;55.812;37.638;2023-05-10T12:12:06;100088.91;;;18.18;27.70
80147;BME280;69472;55.812;37.638;2023-05-10T12:17:11;100088.75;;;17.68;28.08
80147;BME280;69472;55.812;37.638;2023-05-10T12:22:12;100075.44;;;17.93;27.84
80147;BME280;69472;55.812;37.638;2023-05-10T12:27:14;100075.63;;;17.90;28.29
80147;BME280;69472;55.812;37.638;2023-05-10T12:32:15;100072.81;;;17.76;27.78
80147;BME280;69472;55.812;37.638;2023-05-10T12:37:15;100070.75;;;17.47;28.31
80147;BME280;69472;55.812;37.638;2023-05-10T12:42:16;100071.06;;;16.83;29.27
80147;BME280;69472;55.812;37.638;2023-05-10T12:47:17;100068.66;;;17.55;28.55
80147;BME280;69472;55.812;37.638;2023-05-10T12:52:17;100065.84;;;17.95;28.08
80147;BME280;69472;55.812;37.638;2023-05-10T12:57:19;100063.56;;;17.89;28.20
80147;BME280;69472;55.812;37.638;2023-05-10T13:02:20;100060.22;;;17.87;28.29
80147;BME280;69472;55.812;37.638;2023-05-10T13:07:23;100070.81;;;17.64;29.17
80147;BME280;69472;55.812;37.638;2023-05-10T13:12:23;100059.81;;;17.77;28.32
80147;BME280;69472;55.812;37.638;2023-05-10T13:17:25;100026.91;;;17.62;28.72
80147;BME280;69472;55.812;37.638;2023-05-10T13:22:26;100049.19;;;18.18;28.40
80147;BME280;69472;55.812;37.638;2023-05-10T13:27:27;100050.31;;;18.29;28.08
80147;BME280;69472;55.812;37.638;2023-05-10T13:32:28;100045.44;;;17.16;29.56
80147;BME280;69472;55.812;37.638;2023-05-10T13:37:30;100043.13;;;17.83;28.65
80147;BME280;69472;55.812;37.638;2023-05-10T13:42:31;100045.47;;;17.53;28.85
80147;BME280;69472;55.812;37.638;2023-05-10T13:47:33;100033.72;;;17.82;28.66
80147;BME280;69472;55.812;37.638;2023-05-10T13:52:34;100039.16;;;17.76;28.94
80147;BME280;69472;55.812;37.638;2023-05-10T13:57:35;100037.63;;;17.36;29.41
80147;BME280;69472;55.812;37.638;2023-05-10T14:02:36;100034.31;;;17.51;29.28
80147;BME280;69472;55.812;37.638;2023-05-10T14:07:36;100031.47;;;17.38;29.18
80147;BME280;69472;55.812;37.638;2023-05-10T14:12:37;100038.25;;;17.22;29.42
80147;BME280;69472;55.812;37.638;2023-05-10T14:17:38;100027.97;;;17.39;29.40
80147;BME280;69472;55.812;37.638;2023-05-10T14:22:38;100030.06;;;16.94;29.77
80147;BME280;69472;55.812;37.638;2023-05-10T14:27:39;100020.72;;;17.10;29.51
80147;BME280;69472;55.812;37.638;2023-05-10T14:32:40;100026.38;;;17.18;29.52
80147;BME280;69472;55.812;37.638;2023-05-10T14:37:40;100030.31;;;17.08;30.00
80147;BME280;69472;55.812;37.638;2023-05-10T14:42:42;100024.81;;;17.33;30.10
80147;BME280;69472;55.812;37.638;2023-05-10T14:47:43;100014.19;;;17.39;29.83
80147;BME280;69472;55.812;37.638;2023-05-10T14:52:44;100023.28;;;16.92;30.28
80147;BME280;69472;55.812;37.638;2023-05-10T14:57:45;100022.06;;;16.61;30.89
80147;BME280;69472;55.812;37.638;2023-05-10T15:02:47;100021.09;;;16.64;30.77
80147;BME280;69472;55.812;37.638;2023-05-10T15:07:48;100017.41;;;16.69;30.82
80147;BME280;69472;55.812;37.638;2023-05-10T15:12:49;100020.81;;;16.70;30.79
80147;BME280;69472;55.812;37.638;2023-05-10T15:17:50;100011.47;;;16.67;30.91
80147;BME280;69472;55.812;37.638;2023-05-10T15:22:51;100019.06;;;16.70;30.73
80147;BME280;69472;55.812;37.638;2023-05-10T15:27:52;100006.88;;;16.74;30.97
80147;BME280;69472;55.812;37.638;2023-05-10T15:32:52;99990.38;;;16.77;30.69
80147;BME280;69472;55.812;37.638;2023-05-10T15:37:53;100015.91;;;16.84;31.07
80147;BME280;69472;55.812;37.638;2023-05-10T15:42:54;100010.03;;;16.60;31.24
80147;BME280;69472;55.812;37.638;2023-05-10T15:47:55;100001.47;;;16.60;30.95
80147;BME280;69472;55.812;37.638;2023-05-10T15:52:55;100005.72;;;16.61;31.37
80147;BME280;69472;55.812;37.638;2023-05-10T15:57:56;99996.94;;;16.45;31.63
80147;BME280;69472;55.812;37.638;2023-05-10T16:02:57;99997.19;;;16.59;31.76
80147;BME280;69472;55.812;37.638;2023-05-10T16:07:58;99996.34;;;16.58;31.47
80147;BME280;69472;55.812;37.638;2023-05-10T16:12:59;99997.97;;;16.61;31.37
80147;BME280;69472;55.812;37.638;2023-05-10T16:18:01;99970.25;;;16.44;31.40
80147;BME280;69472;55.812;37.638;2023-05-10T16:23:05;100002.31;;;16.40;31.99
80147;BME280;69472;55.812;37.638;2023-05-10T16:28:06;99998.97;;;16.38;31.80
80147;BME280;69472;55.812;37.638;2023-05-10T16:33:06;99997.59;;;16.30;32.07
80147;BME280;69472;55.812;37.638;2023-05-10T16:38:07;99996.94;;;16.25;32.09
80147;BME280;69472;55.812;37.638;2023-05-10T16:43:08;99995.41;;;16.21;32.47
80147;BME280;69472;55.812;37.638;2023-05-10T16:48:08;100005.22;;;16.13;32.39
80147;BME280;69472;55.812;37.638;2023-05-10T16:53:09;100000.50;;;16.02;32.50
80147;BME280;69472;55.812;37.638;2023-05-10T16:58:11;99999.53;;;16.04;32.55
80147;BME280;69472;55.812;37.638;2023-05-10T17:03:11;100015.09;;;16.03;32.46
80147;BME280;69472;55.812;37.638;2023-05-10T17:08:12;100005.59;;;16.03;32.61
80147;BME280;69472;55.812;37.638;2023-05-10T17:13:12;100010.06;;;16.00;32.97
80147;BME280;69472;55.812;37.638;2023-05-10T17:18:13;100013.63;;;15.97;33.18
80147;BME280;69472;55.812;37.638;2023-05-10T17:23:14;99998.88;;;15.79;33.02
80147;BME280;69472;55.812;37.638;2023-05-10T17:28:16;100011.38;;;15.88;33.84
80147;BME280;69472;55.812;37.638;2023-05-10T17:33:16;100022.63;;;15.87;33.62
80147;BME280;69472;55.812;37.638;2023-05-10T17:38:17;99995.91;;;15.68;33.27
80147;BME280;69472;55.812;37.638;2023-05-10T17:43:19;100034.03;;;15.82;33.32
80147;BME280;69472;55.812;37.638;2023-05-10T17:48:20;100024.63;;;15.81;33.32
80147;BME280;69472;55.812;37.638;2023-05-10T17:53:21;100039.28;;;15.80;33.75
80147;BME280;69472;55.812;37.638;2023-05-10T17:58:22;100015.09;;;15.61;34.88
80147;BME280;69472;55.812;37.638;2023-05-10T18:03:22;100037.75;;;15.75;34.30
80147;BME280;69472;55.812;37.638;2023-05-10T18:08:23;100027.56;;;15.72;33.44
80147;BME280;69472;55.812;37.638;2023-05-10T18:13:26;100028.78;;;15.63;35.22
80147;BME280;69472;55.812;37.638;2023-05-10T18:18:27;100032.50;;;15.56;35.45
80147;BME280;69472;55.812;37.638;2023-05-10T18:23:27;100029.03;;;15.57;35.01
80147;BME280;69472;55.812;37.638;2023-05-10T18:28:28;100023.88;;;15.57;34.42
80147;BME280;69472;55.812;37.638;2023-05-10T18:33:29;100026.44;;;15.57;34.59
80147;BME280;69472;55.812;37.638;2023-05-10T18:38:29;100029.25;;;15.51;35.21
80147;BME280;69472;55.812;37.638;2023-05-10T18:43:30;100031.00;;;15.51;35.21
80147;BME280;69472;55.812;37.638;2023-05-10T18:48:33;100028.41;;;15.51;35.09
80147;BME280;69472;55.812;37.638;2023-05-10T18:53:34;100020.00;;;15.46;35.32
80147;BME280;69472;55.812;37.638;2023-05-10T18:58:34;100026.00;;;15.46;35.18
80147;BME280;69472;55.812;37.638;2023-05-10T19:03:35;100036.59;;;15.38;35.88
80147;BME280;69472;55.812;37.638;2023-05-10T19:08:36;100036.59;;;15.38;35.86
80147;BME280;69472;55.812;37.638;2023-05-10T19:13:37;100006.19;;;15.25;36.40
80147;BME280;69472;55.812;37.638;2023-05-10T19:18:38;100036.56;;;15.40;36.71
80147;BME280;69472;55.812;37.638;2023-05-10T19:23:39;100032.22;;;15.40;37.04
80147;BME280;69472;55.812;37.638;2023-05-10T19:28:41;100039.75;;;15.02;38.57
80147;BME280;69472;55.812;37.638;2023-05-10T19:33:41;100043.59;;;15.13;38.11
80147;BME280;69472;55.812;37.638;2023-05-10T19:38:42;100048.66;;;15.16;37.54
80147;BME280;69472;55.812;37.638;2023-05-10T19:43:43;100041.06;;;15.12;37.43
80147;BME280;69472;55.812;37.638;2023-05-10T19:48:43;100037.47;;;15.16;37.67
80147;BME280;69472;55.812;37.638;2023-05-10T19:53:45;100032.97;;;14.99;38.75
80147;BME280;69472;55.812;37.638;2023-05-10T19:58:46;100033.31;;;15.12;37.63
80147;BME280;69472;55.812;37.638;2023-05-10T20:03:46;100033.78;;;15.00;38.37
80147;BME280;69472;55.812;37.638;2023-05-10T20:08:47;100022.69;;;14.98;38.22
80147;BME280;69472;55.812;37.638;2023-05-10T20:13:48;100025.81;;;15.06;37.87
80147;BME280;69472;55.812;37.638;2023-05-10T20:18:50;100028.59;;;15.01;37.80
80147;BME280;69472;55.812;37.638;2023-05-10T20:23:51;100029.44;;;15.02;37.80
80147;BME280;69472;55.812;37.638;2023-05-10T20:28:52;100034.44;;;15.05;38.76
80147;BME280;69472;55.812;37.638;2023-05-10T20:33:53;100033.00;;;14.74;39.12
80147;BME280;69472;55.812;37.638;2023-05-10T20:38:54;100027.28;;;14.66;39.35
80147;BME280;69472;55.812;37.638;2023-05-10T20:43:54;100027.91;;;14.73;39.56
80147;BME280;69472;55.812;37.638;2023-05-10T20:48:55;100027.94;;;14.71;39.41
80147;BME280;69472;55.812;37.638;2023-05-10T20:53:56;100028.06;;;14.68;40.00
80147;BME280;69472;55.812;37.638;2023-05-10T20:58:57;100038.44;;;14.67;40.05
80147;BME280;69472;55.812;37.638;2023-05-10T21:03:57;100035.16;;;14.62;40.51
80147;BME280;69472;55.812;37.638;2023-05-10T21:08:58;100044.69;;;14.60;40.25
80147;BME280;69472;55.812;37.638;2023-05-10T21:13:59;100037.97;;;14.56;40.34
80147;BME280;69472;55.812;37.638;2023-05-10T21:18:59;100041.00;;;14.42;41.45
80147;BME280;69472;55.812;37.638;2023-05-10T21:24:00;100034.88;;;14.46;42.11
80147;BME280;69472;55.812;37.638;2023-05-10T21:29:01;100037.47;;;14.46;43.50
80147;BME280;69472;55.812;37.638;2023-05-10T21:34:04;100039.03;;;14.24;43.80
80147;BME280;69472;55.812;37.638;2023-05-10T21:39:04;100035.09;;;14.14;43.53
80147;BME280;69472;55.812;37.638;2023-05-10T21:44:05;100036.28;;;14.30;43.19
80147;BME280;69472;55.812;37.638;2023-05-10T21:49:06;100043.13;;;14.31;42.43
80147;BME280;69472;55.812;37.638;2023-05-10T21:54:07;100047.25;;;14.10;43.95
80147;BME280;69472;55.812;37.638;2023-05-10T21:59:08;100042.47;;;14.25;42.85
80147;BME280;69472;55.812;37.638;2023-05-10T22:04:09;100026.66;;;14.10;42.94
80147;BME280;69472;55.812;37.638;2023-05-10T22:09:09;100041.72;;;14.21;43.40
80147;BME280;69472;55.812;37.638;2023-05-10T22:14:10;100043.53;;;13.93;44.85
80147;BME280;69472;55.812;37.638;2023-05-10T22:19:11;100046.34;;;13.85;44.92
80147;BME280;69472;55.812;37.638;2023-05-10T22:24:11;100027.22;;;13.94;44.04
80147;BME280;69472;55.812;37.638;2023-05-10T22:29:12;100041.69;;;13.70;45.12
80147;BME280;69472;55.812;37.638;2023-05-10T22:34:13;100048.06;;;13.85;45.40
80147;BME280;69472;55.812;37.638;2023-05-10T22:39:14;100045.00;;;13.46;47.09
80147;BME280;69472;55.812;37.638;2023-05-10T22:44:15;100041.25;;;13.58;46.43
80147;BME280;69472;55.812;37.638;2023-05-10T22:49:16;100044.59;;;13.60;46.16
80147;BME280;69472;55.812;37.638;2023-05-10T22:54:16;100050.84;;;13.51;46.75
80147;BME280;69472;55.812;37.638;2023-05-10T22:59:18;100048.53;;;13.43;47.22
80147;BME280;69472;55.812;37.638;2023-05-10T23:04:19;100048.34;;;13.50;47.63
80147;BME280;69472;55.812;37.638;2023-05-10T23:09:19;100048.75;;;13.64;45.89
80147;BME280;69472;55.812;37.638;2023-05-10T23:14:20;100049.19;;;13.50;46.64
80147;BME280;69472;55.812;37.638;2023-05-10T23:19:21;100043.59;;;13.65;45.54
80147;BME280;69472;55.812;37.638;2023-05-10T23:24:24;100049.34;;;13.46;46.44
80147;BME280;69472;55.812;37.638;2023-05-10T23:29:25;100054.81;;;13.61;45.97
80147;BME280;69472;55.812;37.638;2023-05-10T23:34:26;100039.19;;;13.41;46.41
80147;BME280;69472;55.812;37.638;2023-05-10T23:39:26;100048.63;;;13.40;47.05
80147;BME280;69472;55.812;37.638;2023-05-10T23:44:27;100057.59;;;13.55;46.44
80147;BME280;69472;55.812;37.638;2023-05-10T23:49:28;100040.00;;;13.41;46.84
80147;BME280;69472;55.812;37.638;2023-05-10T23:54:29;100050.72;;;13.28;47.74
80147;BME280;69472;55.812;37.638;2023-05-10T23:59:30;100057.22;;;13.39;46.94
